createdAt,value
2017-08-15T00:00:37.696Z,0
2017-08-15T00:01:18.595Z,0
2017-08-15T00:01:59.482Z,0
2017-08-15T00:02:40.375Z,0
2017-08-15T00:03:21.266Z,0
2017-08-15T00:04:02.147Z,0
2017-08-15T00:04:43.061Z,0
2017-08-15T00:05:23.949Z,0
2017-08-15T00:06:04.835Z,0
2017-08-15T00:06:45.719Z,0
2017-08-15T00:07:26.604Z,0
2017-08-15T00:08:07.483Z,0
2017-08-15T00:08:48.415Z,0
2017-08-15T00:09:29.299Z,0
2017-08-15T00:10:10.186Z,0
2017-08-15T00:10:51.069Z,0
2017-08-15T00:11:31.964Z,0
2017-08-15T00:12:12.859Z,0
2017-08-15T00:14:32.202Z,0
2017-08-15T00:15:13.088Z,0
2017-08-15T00:15:53.969Z,0
2017-08-15T00:16:34.859Z,0
2017-08-15T00:17:15.753Z,0
2017-08-15T00:17:56.639Z,0
2017-08-15T00:18:37.530Z,0
2017-08-15T00:19:18.429Z,0
2017-08-15T00:19:59.299Z,0
2017-08-15T00:20:40.180Z,0
2017-08-15T00:21:21.072Z,0
2017-08-15T00:22:01.963Z,0
2017-08-15T00:22:42.848Z,0
2017-08-15T00:23:23.723Z,0
2017-08-15T00:24:04.609Z,0
2017-08-15T00:24:45.502Z,0
2017-08-15T00:25:26.393Z,0
2017-08-15T00:26:07.274Z,0
2017-08-15T00:26:48.264Z,0
2017-08-15T00:27:29.163Z,0
2017-08-15T00:28:10.061Z,0
2017-08-15T00:28:50.952Z,0
2017-08-15T00:29:31.829Z,0
2017-08-15T00:30:12.712Z,0
2017-08-15T00:30:53.642Z,0
2017-08-15T00:31:34.530Z,0
2017-08-15T00:32:15.421Z,0
2017-08-15T00:32:56.310Z,0
2017-08-15T00:33:37.197Z,0
2017-08-15T00:34:18.088Z,0
2017-08-15T00:34:58.968Z,0
2017-08-15T00:35:39.858Z,0
2017-08-15T00:36:20.758Z,0
2017-08-15T00:37:01.638Z,0
2017-08-15T00:37:42.539Z,0
2017-08-15T00:38:23.432Z,0
2017-08-15T00:39:04.320Z,0
2017-08-15T00:39:45.221Z,0
2017-08-15T00:40:26.099Z,0
2017-08-15T00:41:06.980Z,0
2017-08-15T00:41:47.864Z,0
2017-08-15T00:42:28.755Z,0
2017-08-15T00:43:09.649Z,0
2017-08-15T00:43:50.530Z,0
2017-08-15T00:44:31.418Z,0
2017-08-15T00:45:12.302Z,0
2017-08-15T00:45:53.186Z,0
2017-08-15T00:46:34.101Z,0
2017-08-15T00:47:14.995Z,0
2017-08-15T00:47:55.882Z,0
2017-08-15T00:48:36.771Z,0
2017-08-15T00:49:17.658Z,0
2017-08-15T00:49:58.544Z,0
2017-08-15T00:50:39.430Z,0
2017-08-15T00:51:20.333Z,0
2017-08-15T00:52:01.200Z,0
2017-08-15T00:52:42.077Z,0
2017-08-15T00:53:22.983Z,0
2017-08-15T00:54:03.864Z,0
2017-08-15T00:54:44.752Z,0
2017-08-15T00:55:25.644Z,0
2017-08-15T00:56:06.527Z,0
2017-08-15T00:56:47.414Z,0
2017-08-15T00:57:28.321Z,0
2017-08-15T00:58:09.202Z,0
2017-08-15T00:58:50.083Z,0
2017-08-15T00:59:30.985Z,0
2017-08-15T01:00:11.888Z,0
2017-08-15T01:00:52.775Z,0
2017-08-15T01:01:33.663Z,0
2017-08-15T01:02:14.563Z,0
2017-08-15T01:02:55.441Z,0
2017-08-15T01:03:36.329Z,0
2017-08-15T01:04:17.215Z,0
2017-08-15T01:04:58.125Z,0
2017-08-15T01:05:39.025Z,0
2017-08-15T01:06:19.910Z,0
2017-08-15T01:07:00.804Z,0
2017-08-15T01:07:41.693Z,0
2017-08-15T01:08:22.576Z,0
2017-08-15T01:09:03.460Z,0
2017-08-15T01:09:44.359Z,0
2017-08-15T01:10:25.254Z,0
2017-08-15T01:11:06.153Z,0
2017-08-15T01:11:47.020Z,0
2017-08-15T01:12:27.942Z,0
2017-08-15T01:13:08.787Z,0
2017-08-15T01:13:49.670Z,0
2017-08-15T01:14:30.564Z,0
2017-08-15T01:15:11.445Z,0
2017-08-15T01:15:52.317Z,0
2017-08-15T01:16:33.205Z,0
2017-08-15T01:17:14.101Z,0
2017-08-15T01:17:54.983Z,0
2017-08-15T01:18:35.852Z,0
2017-08-15T01:19:16.758Z,0
2017-08-15T01:19:57.648Z,0
2017-08-15T01:20:38.535Z,0
2017-08-15T01:21:19.418Z,0
2017-08-15T01:22:00.314Z,0
2017-08-15T01:22:41.202Z,0
2017-08-15T01:23:22.088Z,0
2017-08-15T01:24:02.982Z,0
2017-08-15T01:24:43.856Z,0
2017-08-15T01:25:24.757Z,0
2017-08-15T01:26:05.639Z,0
2017-08-15T01:26:46.539Z,0
2017-08-15T01:27:27.410Z,0
2017-08-15T01:28:08.292Z,0
2017-08-15T01:28:49.174Z,0
2017-08-15T01:29:30.068Z,0
2017-08-15T01:30:10.951Z,0
2017-08-15T01:30:51.849Z,0
2017-08-15T01:31:32.741Z,0
2017-08-15T01:32:13.633Z,0
2017-08-15T01:32:54.506Z,0
2017-08-15T01:33:35.386Z,0
2017-08-15T01:34:16.276Z,0
2017-08-15T01:34:57.168Z,0
2017-08-15T01:35:38.050Z,0
2017-08-15T01:36:18.938Z,0
2017-08-15T01:36:59.832Z,0
2017-08-15T01:37:40.711Z,0
2017-08-15T01:38:21.599Z,0
2017-08-15T01:39:02.479Z,0
2017-08-15T01:39:43.378Z,0
2017-08-15T01:40:24.269Z,0
2017-08-15T01:41:05.173Z,0
2017-08-15T01:41:46.058Z,0
2017-08-15T01:42:26.953Z,0
2017-08-15T01:43:07.852Z,0
2017-08-15T01:43:48.714Z,0
2017-08-15T01:44:29.596Z,0
2017-08-15T01:45:10.483Z,0
2017-08-15T01:45:51.398Z,0
2017-08-15T01:46:32.262Z,0
2017-08-15T01:47:13.151Z,0
2017-08-15T01:47:54.045Z,0
2017-08-15T01:48:34.928Z,0
2017-08-15T01:49:15.818Z,0
2017-08-15T01:49:56.713Z,0
2017-08-15T01:50:37.599Z,0
2017-08-15T01:51:18.477Z,0
2017-08-15T01:51:59.368Z,0
2017-08-15T01:52:40.259Z,0
2017-08-15T01:53:21.139Z,0
2017-08-15T01:54:02.014Z,0
2017-08-15T01:54:42.919Z,0
2017-08-15T01:55:23.799Z,0
2017-08-15T01:56:04.682Z,0
2017-08-15T01:56:45.635Z,0
2017-08-15T01:57:26.502Z,0
2017-08-15T01:58:07.401Z,0
2017-08-15T01:58:48.293Z,0
2017-08-15T01:59:29.180Z,0
2017-08-15T02:00:10.069Z,0
2017-08-15T02:00:50.959Z,0
2017-08-15T02:01:31.850Z,0
2017-08-15T02:02:12.738Z,0
2017-08-15T02:02:53.629Z,0
2017-08-15T02:03:34.517Z,0
2017-08-15T02:04:15.399Z,0
2017-08-15T02:04:56.290Z,0
2017-08-15T02:05:37.179Z,0
2017-08-15T02:06:18.059Z,0
2017-08-15T02:06:58.955Z,0
2017-08-15T02:07:39.839Z,0
2017-08-15T02:08:20.737Z,0
2017-08-15T02:09:01.610Z,0
2017-08-15T02:09:42.493Z,0
2017-08-15T02:10:23.391Z,0
2017-08-15T02:11:04.275Z,0
2017-08-15T02:11:45.158Z,0
2017-08-15T02:12:26.047Z,0
2017-08-15T02:13:06.943Z,0
2017-08-15T02:13:47.833Z,0
2017-08-15T02:14:28.728Z,0
2017-08-15T02:15:09.599Z,0
2017-08-15T02:15:50.474Z,0
2017-08-15T02:16:31.348Z,0
2017-08-15T02:17:12.244Z,0
2017-08-15T02:17:53.131Z,0
2017-08-15T02:18:34.013Z,0
2017-08-15T02:19:14.900Z,0
2017-08-15T02:19:55.797Z,0
2017-08-15T02:20:36.673Z,0
2017-08-15T02:21:17.556Z,0
2017-08-15T02:21:58.472Z,0
2017-08-15T02:22:39.351Z,0
2017-08-15T02:23:20.224Z,0
2017-08-15T02:24:01.112Z,0
2017-08-15T02:24:42.009Z,0
2017-08-15T02:25:22.896Z,0
2017-08-15T02:26:03.788Z,0
2017-08-15T02:26:44.678Z,0
2017-08-15T02:27:25.570Z,0
2017-08-15T02:28:06.467Z,0
2017-08-15T02:28:47.364Z,0
2017-08-15T02:29:28.256Z,0
2017-08-15T02:30:09.139Z,0
2017-08-15T02:30:50.038Z,0
2017-08-15T02:31:30.924Z,0
2017-08-15T02:32:11.796Z,0
2017-08-15T02:32:52.705Z,0
2017-08-15T02:33:33.608Z,0
2017-08-15T02:34:14.464Z,0
2017-08-15T02:34:55.349Z,0
2017-08-15T02:35:36.239Z,0
2017-08-15T02:36:17.122Z,0
2017-08-15T02:36:57.993Z,0
2017-08-15T02:37:38.877Z,0
2017-08-15T02:38:19.761Z,0
2017-08-15T02:39:00.650Z,0
2017-08-15T02:39:41.561Z,0
2017-08-15T02:40:22.445Z,0
2017-08-15T02:41:03.338Z,0
2017-08-15T02:41:44.219Z,0
2017-08-15T02:42:25.118Z,0
2017-08-15T02:43:06.003Z,0
2017-08-15T02:43:46.886Z,0
2017-08-15T02:44:27.789Z,0
2017-08-15T02:45:08.680Z,0
2017-08-15T02:45:49.596Z,0
2017-08-15T02:46:30.487Z,0
2017-08-15T02:47:11.374Z,0
2017-08-15T02:47:52.250Z,0
2017-08-15T02:48:33.146Z,0
2017-08-15T02:49:14.042Z,0
2017-08-15T02:49:54.910Z,0
2017-08-15T02:50:35.843Z,0
2017-08-15T02:51:16.722Z,0
2017-08-15T02:51:57.609Z,0
2017-08-15T02:52:38.503Z,0
2017-08-15T02:53:19.380Z,0
2017-08-15T02:54:00.272Z,0
2017-08-15T02:54:41.148Z,0
2017-08-15T02:55:22.054Z,0
2017-08-15T02:56:02.941Z,0
2017-08-15T02:56:43.877Z,0
2017-08-15T02:57:24.760Z,0
2017-08-15T02:58:05.629Z,0
2017-08-15T02:58:46.513Z,0
2017-08-15T02:59:27.410Z,0
2017-08-15T03:00:08.300Z,0
2017-08-15T03:00:49.197Z,0
2017-08-15T03:01:30.085Z,0
2017-08-15T03:02:10.969Z,0
2017-08-15T03:02:51.858Z,0
2017-08-15T03:03:32.754Z,0
2017-08-15T03:04:13.644Z,0
2017-08-15T03:04:54.532Z,0
2017-08-15T03:05:35.426Z,0
2017-08-15T03:06:16.309Z,0
2017-08-15T03:06:57.190Z,0
2017-08-15T03:07:38.070Z,0
2017-08-15T03:08:18.972Z,0
2017-08-15T03:08:59.860Z,0
2017-08-15T03:09:40.754Z,0
2017-08-15T03:10:21.649Z,0
2017-08-15T03:11:02.534Z,0
2017-08-15T03:11:43.421Z,0
2017-08-15T03:12:24.323Z,0
2017-08-15T03:13:05.199Z,0
2017-08-15T03:13:46.086Z,0
2017-08-15T03:14:26.983Z,0
2017-08-15T03:15:07.895Z,0
2017-08-15T03:15:48.758Z,0
2017-08-15T03:16:29.638Z,0
2017-08-15T03:17:10.524Z,0
2017-08-15T03:17:51.421Z,0
2017-08-15T03:18:32.303Z,0
2017-08-15T03:19:13.190Z,0
2017-08-15T03:19:54.083Z,0
2017-08-15T03:20:34.973Z,0
2017-08-15T03:21:15.872Z,0
2017-08-15T03:21:56.750Z,0
2017-08-15T03:22:37.637Z,0
2017-08-15T03:23:18.522Z,0
2017-08-15T03:23:59.421Z,0
2017-08-15T03:24:40.311Z,0
2017-08-15T03:25:21.181Z,0
2017-08-15T03:26:02.057Z,0
2017-08-15T03:26:42.943Z,0
2017-08-15T03:27:23.833Z,0
2017-08-15T03:28:04.733Z,0
2017-08-15T03:28:45.619Z,0
2017-08-15T03:29:26.510Z,0
2017-08-15T03:30:07.405Z,0
2017-08-15T03:30:48.293Z,0
2017-08-15T03:31:29.179Z,0
2017-08-15T03:32:10.068Z,0
2017-08-15T03:32:50.975Z,0
2017-08-15T03:33:31.858Z,0
2017-08-15T03:34:12.759Z,0
2017-08-15T03:34:53.660Z,0
2017-08-15T03:35:34.560Z,0
2017-08-15T03:36:15.460Z,0
2017-08-15T03:36:56.342Z,0
2017-08-15T03:37:37.225Z,0
2017-08-15T03:38:18.112Z,0
2017-08-15T03:38:59.000Z,0
2017-08-15T03:39:39.886Z,0
2017-08-15T03:40:20.787Z,0
2017-08-15T03:41:01.671Z,0
2017-08-15T03:41:42.551Z,0
2017-08-15T03:42:23.444Z,0
2017-08-15T03:43:04.332Z,0
2017-08-15T03:43:45.220Z,0
2017-08-15T03:44:26.096Z,5
2017-08-15T03:45:06.984Z,5
2017-08-15T03:45:47.880Z,5
2017-08-15T03:46:28.775Z,5
2017-08-15T03:47:09.662Z,5
2017-08-15T03:47:50.563Z,5
2017-08-15T03:48:31.449Z,5
2017-08-15T03:49:12.348Z,5
2017-08-15T03:49:53.249Z,5
2017-08-15T03:50:34.135Z,5
2017-08-15T03:51:15.062Z,5
2017-08-15T03:51:55.964Z,5
2017-08-15T03:52:36.860Z,5
2017-08-15T03:53:17.737Z,10
2017-08-15T03:53:58.618Z,10
2017-08-15T03:54:39.504Z,10
2017-08-15T03:55:20.396Z,10
2017-08-15T03:56:01.293Z,10
2017-08-15T03:56:42.177Z,10
2017-08-15T03:57:23.071Z,10
2017-08-15T03:58:03.955Z,10
2017-08-15T03:58:44.837Z,10
2017-08-15T03:59:25.738Z,10
2017-08-15T04:00:06.616Z,15
2017-08-15T04:00:47.487Z,15
2017-08-15T04:01:28.372Z,15
2017-08-15T04:02:09.238Z,15
2017-08-15T04:02:50.143Z,15
2017-08-15T04:03:31.016Z,15
2017-08-15T04:04:11.909Z,15
2017-08-15T04:04:52.790Z,15
2017-08-15T04:05:33.673Z,20
2017-08-15T04:06:14.555Z,20
2017-08-15T04:06:55.444Z,20
2017-08-15T04:07:36.325Z,20
2017-08-15T04:08:17.218Z,20
2017-08-15T04:08:58.120Z,20
2017-08-15T04:09:39.000Z,20
2017-08-15T04:10:19.906Z,20
2017-08-15T04:11:00.794Z,25
2017-08-15T04:11:41.676Z,25
2017-08-15T04:12:22.558Z,25
2017-08-15T04:13:03.439Z,25
2017-08-15T04:13:44.327Z,25
2017-08-15T04:14:25.236Z,25
2017-08-15T04:15:06.118Z,25
2017-08-15T04:15:47.002Z,25
2017-08-15T04:16:27.887Z,30
2017-08-15T04:17:08.768Z,30
2017-08-15T04:17:49.647Z,30
2017-08-15T04:18:30.541Z,30
2017-08-15T04:19:11.451Z,30
2017-08-15T04:19:52.332Z,30
2017-08-15T04:20:33.217Z,30
2017-08-15T04:21:14.103Z,35
2017-08-15T04:21:54.985Z,35
2017-08-15T04:22:35.862Z,35
2017-08-15T04:23:16.763Z,35
2017-08-15T04:23:57.629Z,35
2017-08-15T04:24:38.515Z,35
2017-08-15T04:25:19.398Z,40
2017-08-15T04:26:00.281Z,40
2017-08-15T04:26:41.191Z,40
2017-08-15T04:27:22.072Z,40
2017-08-15T04:28:02.956Z,40
2017-08-15T04:28:43.839Z,40
2017-08-15T04:29:24.723Z,45
2017-08-15T04:30:05.611Z,45
2017-08-15T04:30:46.510Z,45
2017-08-15T04:31:27.389Z,45
2017-08-15T04:32:08.279Z,45
2017-08-15T04:32:49.170Z,45
2017-08-15T04:33:30.050Z,45
2017-08-15T04:34:10.934Z,50
2017-08-15T04:34:51.827Z,50
2017-08-15T04:35:32.712Z,50
2017-08-15T04:36:13.608Z,50
2017-08-15T04:36:54.489Z,50
2017-08-15T04:37:35.371Z,50
2017-08-15T04:38:16.261Z,55
2017-08-15T04:38:57.148Z,55
2017-08-15T04:39:38.033Z,55
2017-08-15T04:40:18.917Z,55
2017-08-15T04:40:59.820Z,55
2017-08-15T04:41:40.722Z,55
2017-08-15T04:42:21.631Z,60
2017-08-15T04:43:02.507Z,60
2017-08-15T04:43:43.409Z,60
2017-08-15T04:44:24.301Z,60
2017-08-15T04:45:05.179Z,60
2017-08-15T04:45:46.060Z,60
2017-08-15T04:46:26.945Z,65
2017-08-15T04:47:07.858Z,65
2017-08-15T04:47:48.748Z,65
2017-08-15T04:48:29.646Z,65
2017-08-15T04:49:10.549Z,65
2017-08-15T04:49:51.444Z,65
2017-08-15T04:50:32.338Z,70
2017-08-15T04:51:13.219Z,70
2017-08-15T04:51:54.118Z,70
2017-08-15T04:52:35.007Z,70
2017-08-15T04:53:15.921Z,70
2017-08-15T04:53:56.810Z,70
2017-08-15T04:54:37.699Z,70
2017-08-15T04:55:18.593Z,75
2017-08-15T04:55:59.470Z,75
2017-08-15T04:56:40.373Z,75
2017-08-15T04:57:21.237Z,75
2017-08-15T04:58:02.130Z,75
2017-08-15T04:58:43.033Z,75
2017-08-15T04:59:23.913Z,80
2017-08-15T05:00:04.803Z,80
2017-08-15T05:00:45.727Z,80
2017-08-15T05:01:26.621Z,80
2017-08-15T05:02:07.508Z,80
2017-08-15T05:02:48.392Z,80
2017-08-15T05:03:29.277Z,85
2017-08-15T05:04:10.181Z,85
2017-08-15T05:06:29.569Z,85
2017-08-15T05:07:10.457Z,90
2017-08-15T05:07:51.335Z,90
2017-08-15T05:08:32.226Z,90
2017-08-15T05:09:13.106Z,90
2017-08-15T05:09:53.992Z,90
2017-08-15T05:10:34.877Z,90
2017-08-15T05:11:15.760Z,90
2017-08-15T05:11:56.659Z,95
2017-08-15T05:12:37.521Z,95
2017-08-15T05:13:18.403Z,95
2017-08-15T05:13:59.298Z,95
2017-08-15T05:14:40.186Z,95
2017-08-15T05:15:21.075Z,95
2017-08-15T05:16:01.967Z,95
2017-08-15T05:16:42.862Z,100
2017-08-15T05:17:23.734Z,100
2017-08-15T05:18:04.625Z,100
2017-08-15T05:18:45.520Z,100
2017-08-15T05:19:26.403Z,100
2017-08-15T05:20:07.290Z,100
2017-08-15T05:20:48.174Z,105
2017-08-15T05:21:29.073Z,105
2017-08-15T05:22:09.968Z,105
2017-08-15T05:22:50.852Z,105
2017-08-15T05:23:31.741Z,105
2017-08-15T05:24:12.633Z,105
2017-08-15T05:24:53.509Z,110
2017-08-15T05:25:34.417Z,110
2017-08-15T05:26:15.302Z,110
2017-08-15T05:26:56.192Z,110
2017-08-15T05:27:37.083Z,110
2017-08-15T05:28:17.964Z,110
2017-08-15T05:28:58.870Z,115
2017-08-15T05:29:39.736Z,115
2017-08-15T05:30:20.622Z,115
2017-08-15T05:31:01.508Z,115
2017-08-15T05:31:42.395Z,115
2017-08-15T05:32:23.289Z,115
2017-08-15T05:33:04.159Z,120
2017-08-15T05:33:45.035Z,120
2017-08-15T05:34:25.929Z,120
2017-08-15T05:35:06.826Z,120
2017-08-15T05:35:47.705Z,120
2017-08-15T05:36:28.654Z,120
2017-08-15T05:37:09.530Z,125
2017-08-15T05:37:50.417Z,125
2017-08-15T05:38:31.319Z,125
2017-08-15T05:39:12.184Z,125
2017-08-15T05:39:53.069Z,125
2017-08-15T05:40:33.947Z,125
2017-08-15T05:41:14.836Z,130
2017-08-15T05:41:55.736Z,130
2017-08-15T05:42:36.622Z,130
2017-08-15T05:43:17.506Z,130
2017-08-15T05:43:58.391Z,130
2017-08-15T05:44:39.279Z,130
2017-08-15T05:45:20.169Z,135
2017-08-15T05:46:01.059Z,135
2017-08-15T05:46:41.943Z,135
2017-08-15T05:47:22.829Z,135
2017-08-15T05:48:03.722Z,135
2017-08-15T05:48:44.613Z,140
2017-08-15T05:49:25.479Z,140
2017-08-15T05:50:06.370Z,140
2017-08-15T05:50:47.290Z,140
2017-08-15T05:51:28.147Z,140
2017-08-15T05:52:09.038Z,145
2017-08-15T05:52:49.928Z,145
2017-08-15T05:53:30.816Z,145
2017-08-15T05:54:11.717Z,145
2017-08-15T05:54:52.601Z,145
2017-08-15T05:55:33.490Z,150
2017-08-15T05:56:14.364Z,150
2017-08-15T05:56:55.229Z,150
2017-08-15T05:57:36.172Z,150
2017-08-15T05:58:17.036Z,150
2017-08-15T05:58:57.929Z,150
2017-08-15T05:59:38.816Z,155
2017-08-15T06:00:19.712Z,155
2017-08-15T06:01:00.590Z,155
2017-08-15T06:01:41.472Z,155
2017-08-15T06:02:22.363Z,155
2017-08-15T06:03:03.246Z,160
2017-08-15T06:03:44.142Z,160
2017-08-15T06:04:25.035Z,160
2017-08-15T06:05:05.914Z,160
2017-08-15T06:05:46.800Z,165
2017-08-15T06:06:27.720Z,165
2017-08-15T06:07:08.600Z,165
2017-08-15T06:07:49.485Z,165
2017-08-15T06:08:30.390Z,165
2017-08-15T06:09:11.269Z,170
2017-08-15T06:09:52.154Z,170
2017-08-15T06:10:33.052Z,170
2017-08-15T06:11:13.944Z,170
2017-08-15T06:11:54.839Z,175
2017-08-15T06:12:35.718Z,175
2017-08-15T06:13:16.608Z,175
2017-08-15T06:13:57.491Z,170
2017-08-15T06:14:38.385Z,175
2017-08-15T06:15:19.285Z,175
2017-08-15T06:16:00.149Z,175
2017-08-15T06:16:41.045Z,175
2017-08-15T06:17:21.936Z,180
2017-08-15T06:18:02.816Z,180
2017-08-15T06:18:43.698Z,180
2017-08-15T06:19:24.556Z,185
2017-08-15T06:20:05.429Z,185
2017-08-15T06:20:46.317Z,185
2017-08-15T06:21:27.221Z,185
2017-08-15T06:22:08.111Z,190
2017-08-15T06:22:48.994Z,190
2017-08-15T06:23:29.893Z,190
2017-08-15T06:24:10.763Z,190
2017-08-15T06:24:51.640Z,190
2017-08-15T06:25:32.533Z,195
2017-08-15T06:26:13.429Z,195
2017-08-15T06:26:54.290Z,195
2017-08-15T06:27:35.158Z,195
2017-08-15T06:28:16.052Z,200
2017-08-15T06:28:56.953Z,200
2017-08-15T06:29:37.823Z,200
2017-08-15T06:30:18.698Z,205
2017-08-15T06:30:59.579Z,205
2017-08-15T06:31:40.473Z,210
2017-08-15T06:32:21.352Z,210
2017-08-15T06:33:02.219Z,215
2017-08-15T06:33:43.090Z,215
2017-08-15T06:34:23.960Z,220
2017-08-15T06:35:04.871Z,225
2017-08-15T06:35:45.771Z,225
2017-08-15T06:36:26.667Z,230
2017-08-15T06:37:07.561Z,235
2017-08-15T06:37:48.439Z,235
2017-08-15T06:38:29.322Z,235
2017-08-15T06:39:10.229Z,240
2017-08-15T06:39:51.103Z,245
2017-08-15T06:40:31.982Z,250
2017-08-15T06:41:12.872Z,255
2017-08-15T06:41:53.771Z,255
2017-08-15T06:42:34.646Z,260
2017-08-15T06:43:15.513Z,265
2017-08-15T06:43:56.403Z,270
2017-08-15T06:44:37.305Z,275
2017-08-15T06:45:18.190Z,285
2017-08-15T06:45:59.079Z,280
2017-08-15T06:46:39.987Z,285
2017-08-15T06:47:20.851Z,295
2017-08-15T06:48:01.738Z,300
2017-08-15T06:48:42.641Z,305
2017-08-15T06:49:23.525Z,305
2017-08-15T06:50:04.408Z,310
2017-08-15T06:50:45.295Z,310
2017-08-15T06:51:26.201Z,310
2017-08-15T06:52:07.086Z,310
2017-08-15T06:52:47.973Z,315
2017-08-15T06:53:28.873Z,320
2017-08-15T06:54:09.772Z,320
2017-08-15T06:54:50.656Z,335
2017-08-15T06:55:31.671Z,530
2017-08-15T06:56:12.559Z,555
2017-08-15T06:56:53.451Z,415
2017-08-15T06:57:34.327Z,355
2017-08-15T06:58:15.215Z,355
2017-08-15T06:58:56.099Z,365
2017-08-15T06:59:36.990Z,370
2017-08-15T07:00:17.866Z,375
2017-08-15T07:00:58.758Z,380
2017-08-15T07:01:39.653Z,380
2017-08-15T07:02:20.536Z,385
2017-08-15T07:03:01.428Z,390
2017-08-15T07:03:42.330Z,395
2017-08-15T07:04:23.225Z,390
2017-08-15T07:05:04.097Z,440
2017-08-15T07:05:44.987Z,930
2017-08-15T07:06:25.907Z,1500
2017-08-15T07:07:06.803Z,1870
2017-08-15T07:07:47.695Z,1940
2017-08-15T07:08:28.593Z,1935
2017-08-15T07:09:09.488Z,1905
2017-08-15T07:09:50.387Z,1890
2017-08-15T07:10:31.259Z,1890
2017-08-15T07:11:12.152Z,1910
2017-08-15T07:11:53.051Z,1955
2017-08-15T07:12:33.944Z,2000
2017-08-15T07:13:14.845Z,2015
2017-08-15T07:13:55.737Z,1975
2017-08-15T07:14:36.628Z,1915
2017-08-15T07:15:17.523Z,1875
2017-08-15T07:15:58.425Z,1840
2017-08-15T07:16:39.329Z,1845
2017-08-15T07:17:20.217Z,1895
2017-08-15T07:18:01.113Z,1935
2017-08-15T07:18:42.014Z,1995
2017-08-15T07:19:22.914Z,2015
2017-08-15T07:20:03.815Z,2030
2017-08-15T07:20:44.706Z,2015
2017-08-15T07:21:25.592Z,1995
2017-08-15T07:22:06.502Z,2030
2017-08-15T07:22:47.395Z,2075
2017-08-15T07:23:28.290Z,2080
2017-08-15T07:24:09.186Z,1990
2017-08-15T07:24:50.087Z,1705
2017-08-15T07:25:30.980Z,1580
2017-08-15T07:26:11.892Z,1570
2017-08-15T07:26:52.787Z,1650
2017-08-15T07:27:33.687Z,1740
2017-08-15T07:28:14.573Z,1870
2017-08-15T07:28:55.467Z,2075
2017-08-15T07:29:36.369Z,1840
2017-08-15T07:30:17.268Z,1345
2017-08-15T07:30:58.122Z,815
2017-08-15T07:31:39.017Z,555
2017-08-15T07:32:19.918Z,505
2017-08-15T07:33:00.816Z,490
2017-08-15T07:33:41.758Z,485
2017-08-15T07:34:22.671Z,485
2017-08-15T07:35:03.576Z,480
2017-08-15T07:35:44.479Z,475
2017-08-15T07:36:25.375Z,475
2017-08-15T07:37:06.289Z,475
2017-08-15T07:37:47.193Z,475
2017-08-15T07:38:28.093Z,475
2017-08-15T07:39:08.999Z,480
2017-08-15T07:39:49.902Z,480
2017-08-15T07:40:30.812Z,480
2017-08-15T07:41:11.710Z,485
2017-08-15T07:41:52.651Z,485
2017-08-15T07:42:33.533Z,490
2017-08-15T07:43:14.428Z,490
2017-08-15T07:43:55.332Z,495
2017-08-15T07:44:36.234Z,495
2017-08-15T07:45:17.134Z,495
2017-08-15T07:45:58.029Z,500
2017-08-15T07:46:38.942Z,500
2017-08-15T07:47:19.841Z,500
2017-08-15T07:48:00.737Z,500
2017-08-15T07:48:41.649Z,505
2017-08-15T07:49:22.543Z,505
2017-08-15T07:50:03.445Z,510
2017-08-15T07:50:44.338Z,515
2017-08-15T07:51:25.239Z,520
2017-08-15T07:52:06.142Z,535
2017-08-15T07:52:47.073Z,555
2017-08-15T07:53:27.948Z,585
2017-08-15T07:54:08.860Z,790
2017-08-15T07:54:49.739Z,1165
2017-08-15T07:55:30.642Z,1590
2017-08-15T07:56:11.564Z,1930
2017-08-15T07:56:52.450Z,2130
2017-08-15T07:57:33.375Z,2310
2017-08-15T07:58:14.256Z,2370
2017-08-15T07:58:55.171Z,2430
2017-08-15T07:59:36.064Z,2465
2017-08-15T08:00:16.955Z,2505
2017-08-15T08:00:57.885Z,2510
2017-08-15T08:01:38.768Z,2480
2017-08-15T08:02:19.678Z,2460
2017-08-15T08:03:00.584Z,2405
2017-08-15T08:03:41.490Z,2345
2017-08-15T08:04:22.393Z,2180
2017-08-15T08:05:03.310Z,2055
2017-08-15T08:05:44.201Z,2065
2017-08-15T08:06:25.108Z,2145
2017-08-15T08:07:06.011Z,2325
2017-08-15T08:07:46.895Z,2420
2017-08-15T08:08:27.817Z,2345
2017-08-15T08:09:08.698Z,2065
2017-08-15T08:09:49.603Z,2010
2017-08-15T08:10:30.511Z,2040
2017-08-15T08:11:11.401Z,2245
2017-08-15T08:11:52.301Z,2255
2017-08-15T08:12:33.208Z,2280
2017-08-15T08:13:14.122Z,2295
2017-08-15T08:13:54.996Z,2310
2017-08-15T08:14:35.941Z,2345
2017-08-15T08:15:16.841Z,2380
2017-08-15T08:15:57.757Z,2405
2017-08-15T08:16:38.645Z,2435
2017-08-15T08:17:19.539Z,2445
2017-08-15T08:18:00.450Z,2460
2017-08-15T08:18:41.353Z,2455
2017-08-15T08:19:22.296Z,2450
2017-08-15T08:20:03.201Z,2440
2017-08-15T08:20:44.096Z,2440
2017-08-15T08:21:25.054Z,2425
2017-08-15T08:22:05.947Z,2405
2017-08-15T08:22:46.869Z,2420
2017-08-15T08:23:27.769Z,2430
2017-08-15T08:24:08.675Z,2475
2017-08-15T08:24:49.610Z,2530
2017-08-15T08:25:30.515Z,2565
2017-08-15T08:26:11.416Z,2595
2017-08-15T08:26:52.335Z,2575
2017-08-15T08:27:33.233Z,2560
2017-08-15T08:28:14.151Z,2540
2017-08-15T08:28:55.033Z,2495
2017-08-15T08:29:35.936Z,2485
2017-08-15T08:30:16.844Z,2245
2017-08-15T08:30:57.767Z,2140
2017-08-15T08:31:38.676Z,2210
2017-08-15T08:32:19.566Z,2525
2017-08-15T08:33:00.468Z,2580
2017-08-15T08:33:41.379Z,2630
2017-08-15T08:34:22.284Z,2675
2017-08-15T08:35:03.207Z,2695
2017-08-15T08:35:44.113Z,2690
2017-08-15T08:36:25.033Z,2640
2017-08-15T08:37:05.937Z,2605
2017-08-15T08:37:46.853Z,2600
2017-08-15T08:38:27.753Z,2605
2017-08-15T08:39:08.662Z,2665
2017-08-15T08:39:49.565Z,2730
2017-08-15T08:40:30.495Z,2775
2017-08-15T08:42:24.176Z,2675
2017-08-15T08:43:05.076Z,2570
2017-08-15T08:43:45.984Z,2310
2017-08-15T08:44:26.899Z,2210
2017-08-15T08:45:07.801Z,2205
2017-08-15T08:45:48.703Z,2320
2017-08-15T08:46:29.612Z,2645
2017-08-15T08:47:10.520Z,2760
2017-08-15T08:47:51.452Z,2740
2017-08-15T08:48:32.371Z,2725
2017-08-15T08:49:13.262Z,2720
2017-08-15T08:49:54.173Z,2675
2017-08-15T08:50:35.098Z,2625
2017-08-15T08:51:16.028Z,2605
2017-08-15T08:51:56.968Z,2560
2017-08-15T08:52:37.860Z,2285
2017-08-15T08:53:18.781Z,2215
2017-08-15T08:53:59.671Z,2310
2017-08-15T08:54:40.564Z,2595
2017-08-15T08:55:21.482Z,2680
2017-08-15T08:56:02.412Z,2670
2017-08-15T08:56:43.319Z,2635
2017-08-15T08:57:24.227Z,2600
2017-08-15T08:58:05.124Z,2615
2017-08-15T08:58:46.035Z,2580
2017-08-15T08:59:26.933Z,2605
2017-08-15T09:00:07.833Z,2645
2017-08-15T09:00:48.745Z,2695
2017-08-15T09:01:29.634Z,2730
2017-08-15T09:02:10.547Z,2830
2017-08-15T09:02:51.458Z,2760
2017-08-15T09:03:32.390Z,2875
2017-08-15T09:04:13.336Z,2910
2017-08-15T09:04:54.236Z,2940
2017-08-15T09:05:35.143Z,2900
2017-08-15T09:06:16.047Z,2840
2017-08-15T09:06:56.975Z,2750
2017-08-15T09:07:37.866Z,2605
2017-08-15T09:08:18.778Z,2590
2017-08-15T09:08:59.691Z,2600
2017-08-15T09:09:40.611Z,2685
2017-08-15T09:10:21.511Z,2715
2017-08-15T09:11:02.430Z,2755
2017-08-15T09:11:43.315Z,2750
2017-08-15T09:12:24.244Z,2825
2017-08-15T09:13:05.122Z,2860
2017-08-15T09:13:46.015Z,2980
2017-08-15T09:14:26.926Z,2995
2017-08-15T09:16:46.309Z,2940
2017-08-15T09:17:27.220Z,2930
2017-08-15T09:18:08.138Z,2905
2017-08-15T09:20:01.776Z,2410
2017-08-15T09:20:42.678Z,2700
2017-08-15T09:21:23.589Z,2570
2017-08-15T09:22:04.486Z,2355
2017-08-15T09:22:45.393Z,2745
2017-08-15T09:23:26.290Z,2800
2017-08-15T09:24:07.225Z,2750
2017-08-15T09:24:48.113Z,2750
2017-08-15T09:25:29.024Z,2785
2017-08-15T09:26:09.923Z,2830
2017-08-15T09:26:50.830Z,2815
2017-08-15T09:27:31.739Z,2900
2017-08-15T09:28:12.651Z,2655
2017-08-15T09:28:53.576Z,2685
2017-08-15T09:29:34.485Z,2890
2017-08-15T09:30:15.379Z,2940
2017-08-15T09:30:56.296Z,2955
2017-08-15T09:31:37.193Z,2960
2017-08-15T09:32:18.094Z,2960
2017-08-15T09:32:59.001Z,2970
2017-08-15T09:33:39.910Z,2935
2017-08-15T09:34:20.821Z,2885
2017-08-15T09:35:01.732Z,2850
2017-08-15T09:35:42.637Z,2805
2017-08-15T09:36:23.540Z,2705
2017-08-15T09:37:04.447Z,2810
2017-08-15T09:37:45.354Z,2790
2017-08-15T09:38:26.271Z,2790
2017-08-15T09:39:07.196Z,2795
2017-08-15T09:39:48.108Z,2660
2017-08-15T09:40:29.024Z,2630
2017-08-15T09:41:09.921Z,2545
2017-08-15T09:41:50.841Z,2400
2017-08-15T09:42:31.740Z,2090
2017-08-15T09:43:12.661Z,2070
2017-08-15T09:43:53.580Z,1960
2017-08-15T09:44:34.476Z,2035